sensor_id;sensor_type;location;lat;lon;timestamp;P1;durP1;ratioP1;P2;durP2;ratioP2
20026;SDS011;10174;42.688;23.344;2023-02-27T00:01:58;47.35;;;12.75;;
20026;SDS011;10174;42.688;23.344;2023-02-27T00:04:24;53.25;;;12.23;;
20026;SDS011;10174;42.688;23.344;2023-02-27T00:06:49;44.45;;;11.07;;
20026;SDS011;10174;42.688;23.344;2023-02-27T00:09:15;52.58;;;12.35;;
20026;SDS011;10174;42.688;23.344;2023-02-27T00:11:40;47.35;;;12.32;;
20026;SDS011;10174;42.688;23.344;2023-02-27T00:14:07;63.50;;;13.25;;
20026;SDS011;10174;42.688;23.344;2023-02-27T00:16:32;53.33;;;12.77;;
20026;SDS011;10174;42.688;23.344;2023-02-27T00:18:58;54.78;;;12.90;;
20026;SDS011;10174;42.688;23.344;2023-02-27T00:21:25;51.80;;;11.57;;
20026;SDS011;10174;42.688;23.344;2023-02-27T00:23:51;53.85;;;12.73;;
20026;SDS011;10174;42.688;23.344;2023-02-27T00:28:41;51.90;;;12.52;;
20026;SDS011;10174;42.688;23.344;2023-02-27T00:31:07;38.40;;;11.57;;
20026;SDS011;10174;42.688;23.344;2023-02-27T00:33:32;57.67;;;13.20;;
20026;SDS011;10174;42.688;23.344;2023-02-27T00:35:58;44.97;;;13.80;;
20026;SDS011;10174;42.688;23.344;2023-02-27T00:38:26;55.42;;;13.05;;
20026;SDS011;10174;42.688;23.344;2023-02-27T00:40:51;59.92;;;14.35;;
20026;SDS011;10174;42.688;23.344;2023-02-27T00:43:17;43.50;;;11.50;;
20026;SDS011;10174;42.688;23.344;2023-02-27T00:45:42;64.60;;;15.20;;
20026;SDS011;10174;42.688;23.344;2023-02-27T00:48:08;50.30;;;13.18;;
20026;SDS011;10174;42.688;23.344;2023-02-27T00:50:33;53.25;;;13.93;;
20026;SDS011;10174;42.688;23.344;2023-02-27T00:52:58;57.42;;;15.00;;
20026;SDS011;10174;42.688;23.344;2023-02-27T00:55:24;58.10;;;13.63;;
20026;SDS011;10174;42.688;23.344;2023-02-27T00:57:49;59.75;;;14.23;;
20026;SDS011;10174;42.688;23.344;2023-02-27T01:00:15;48.88;;;13.98;;
20026;SDS011;10174;42.688;23.344;2023-02-27T01:02:40;50.90;;;13.70;;
20026;SDS011;10174;42.688;23.344;2023-02-27T01:05:06;45.75;;;12.68;;
20026;SDS011;10174;42.688;23.344;2023-02-27T01:07:32;61.60;;;14.15;;
20026;SDS011;10174;42.688;23.344;2023-02-27T01:09:57;66.75;;;14.18;;
20026;SDS011;10174;42.688;23.344;2023-02-27T01:12:23;42.75;;;12.95;;
20026;SDS011;10174;42.688;23.344;2023-02-27T01:14:48;43.20;;;12.57;;
20026;SDS011;10174;42.688;23.344;2023-02-27T01:17:14;48.47;;;13.32;;
20026;SDS011;10174;42.688;23.344;2023-02-27T01:19:39;40.92;;;12.90;;
20026;SDS011;10174;42.688;23.344;2023-02-27T01:22:05;43.95;;;13.48;;
20026;SDS011;10174;42.688;23.344;2023-02-27T01:24:30;49.80;;;13.65;;
20026;SDS011;10174;42.688;23.344;2023-02-27T01:26:55;45.28;;;14.02;;
20026;SDS011;10174;42.688;23.344;2023-02-27T01:29:21;58.80;;;14.80;;
20026;SDS011;10174;42.688;23.344;2023-02-27T01:31:46;55.45;;;14.93;;
20026;SDS011;10174;42.688;23.344;2023-02-27T01:34:12;56.75;;;14.10;;
20026;SDS011;10174;42.688;23.344;2023-02-27T01:36:38;51.42;;;14.65;;
20026;SDS011;10174;42.688;23.344;2023-02-27T01:41:29;42.22;;;13.40;;
20026;SDS011;10174;42.688;23.344;2023-02-27T01:43:59;54.25;;;13.23;;
20026;SDS011;10174;42.688;23.344;2023-02-27T01:46:27;48.92;;;12.20;;
20026;SDS011;10174;42.688;23.344;2023-02-27T01:48:55;68.20;;;14.20;;
20026;SDS011;10174;42.688;23.344;2023-02-27T01:51:25;59.45;;;13.20;;
20026;SDS011;10174;42.688;23.344;2023-02-27T01:53:54;56.53;;;13.63;;
20026;SDS011;10174;42.688;23.344;2023-02-27T01:56:24;49.17;;;12.48;;
20026;SDS011;10174;42.688;23.344;2023-02-27T01:58:52;54.38;;;12.73;;
20026;SDS011;10174;42.688;23.344;2023-02-27T02:01:26;51.42;;;14.20;;
20026;SDS011;10174;42.688;23.344;2023-02-27T02:04:10;52.63;;;14.43;;
20026;SDS011;10174;42.688;23.344;2023-02-27T02:06:43;49.90;;;12.50;;
20026;SDS011;10174;42.688;23.344;2023-02-27T02:09:11;51.90;;;12.68;;
20026;SDS011;10174;42.688;23.344;2023-02-27T02:11:40;53.92;;;13.95;;
20026;SDS011;10174;42.688;23.344;2023-02-27T02:14:06;47.80;;;13.07;;
20026;SDS011;10174;42.688;23.344;2023-02-27T02:24:28;47.25;;;13.52;;
20026;SDS011;10174;42.688;23.344;2023-02-27T02:41:18;20.63;;;3.60;;
20026;SDS011;10174;42.688;23.344;2023-02-27T02:46:41;7.93;;;1.95;;
20026;SDS011;10174;42.688;23.344;2023-02-27T02:52:17;10.65;;;2.90;;
20026;SDS011;10174;42.688;23.344;2023-02-27T02:57:41;9.13;;;1.83;;
20026;SDS011;10174;42.688;23.344;2023-02-27T03:00:14;6.88;;;1.80;;
20026;SDS011;10174;42.688;23.344;2023-02-27T03:03:07;6.20;;;2.67;;
20026;SDS011;10174;42.688;23.344;2023-02-27T03:05:49;9.05;;;2.58;;
20026;SDS011;10174;42.688;23.344;2023-02-27T03:08:27;6.88;;;2.35;;
20026;SDS011;10174;42.688;23.344;2023-02-27T03:10:58;10.60;;;3.80;;
20026;SDS011;10174;42.688;23.344;2023-02-27T03:13:35;16.92;;;6.25;;
20026;SDS011;10174;42.688;23.344;2023-02-27T03:18:36;16.35;;;8.00;;
20026;SDS011;10174;42.688;23.344;2023-02-27T03:21:09;18.40;;;7.95;;
20026;SDS011;10174;42.688;23.344;2023-02-27T03:23:42;17.05;;;7.72;;
20026;SDS011;10174;42.688;23.344;2023-02-27T03:26:10;12.88;;;6.72;;
20026;SDS011;10174;42.688;23.344;2023-02-27T03:28:39;15.52;;;7.57;;
20026;SDS011;10174;42.688;23.344;2023-02-27T03:31:13;18.20;;;7.93;;
20026;SDS011;10174;42.688;23.344;2023-02-27T03:33:47;21.45;;;8.90;;
20026;SDS011;10174;42.688;23.344;2023-02-27T03:41:54;20.60;;;9.13;;
20026;SDS011;10174;42.688;23.344;2023-02-27T03:45:38;19.85;;;8.68;;
20026;SDS011;10174;42.688;23.344;2023-02-27T03:47:44;18.35;;;9.07;;
20026;SDS011;10174;42.688;23.344;2023-02-27T03:50:09;19.25;;;9.18;;
20026;SDS011;10174;42.688;23.344;2023-02-27T03:52:36;19.95;;;8.63;;
20026;SDS011;10174;42.688;23.344;2023-02-27T03:57:39;32.80;;;9.10;;
20026;SDS011;10174;42.688;23.344;2023-02-27T04:00:05;26.55;;;9.43;;
20026;SDS011;10174;42.688;23.344;2023-02-27T04:02:33;16.00;;;7.65;;
20026;SDS011;10174;42.688;23.344;2023-02-27T04:05:00;21.27;;;9.40;;
20026;SDS011;10174;42.688;23.344;2023-02-27T04:10:21;14.02;;;7.05;;
20026;SDS011;10174;42.688;23.344;2023-02-27T04:15:53;18.52;;;7.25;;
20026;SDS011;10174;42.688;23.344;2023-02-27T04:23:36;16.23;;;6.95;;
20026;SDS011;10174;42.688;23.344;2023-02-27T04:29:05;15.63;;;6.35;;
20026;SDS011;10174;42.688;23.344;2023-02-27T04:31:40;14.88;;;7.47;;
20026;SDS011;10174;42.688;23.344;2023-02-27T04:34:23;15.98;;;7.57;;
20026;SDS011;10174;42.688;23.344;2023-02-27T04:36:57;21.05;;;8.75;;
20026;SDS011;10174;42.688;23.344;2023-02-27T04:39:36;20.13;;;9.30;;
20026;SDS011;10174;42.688;23.344;2023-02-27T04:42:12;17.85;;;7.90;;
20026;SDS011;10174;42.688;23.344;2023-02-27T04:44:40;16.88;;;8.00;;
20026;SDS011;10174;42.688;23.344;2023-02-27T04:47:09;17.45;;;6.95;;
20026;SDS011;10174;42.688;23.344;2023-02-27T04:49:38;15.07;;;7.00;;
20026;SDS011;10174;42.688;23.344;2023-02-27T04:52:12;16.67;;;6.75;;
20026;SDS011;10174;42.688;23.344;2023-02-27T04:57:11;12.23;;;5.80;;
20026;SDS011;10174;42.688;23.344;2023-02-27T04:59:43;12.00;;;5.93;;
20026;SDS011;10174;42.688;23.344;2023-02-27T05:02:23;12.80;;;6.05;;
20026;SDS011;10174;42.688;23.344;2023-02-27T05:04:54;9.73;;;4.82;;
20026;SDS011;10174;42.688;23.344;2023-02-27T05:07:25;9.30;;;4.82;;
20026;SDS011;10174;42.688;23.344;2023-02-27T05:09:58;8.55;;;4.57;;
20026;SDS011;10174;42.688;23.344;2023-02-27T05:12:30;9.07;;;4.50;;
20026;SDS011;10174;42.688;23.344;2023-02-27T05:17:43;11.10;;;5.50;;
20026;SDS011;10174;42.688;23.344;2023-02-27T05:20:21;10.80;;;4.75;;
20026;SDS011;10174;42.688;23.344;2023-02-27T05:22:58;8.98;;;4.72;;
20026;SDS011;10174;42.688;23.344;2023-02-27T05:25:34;8.95;;;4.13;;
20026;SDS011;10174;42.688;23.344;2023-02-27T05:28:23;10.18;;;4.50;;
20026;SDS011;10174;42.688;23.344;2023-02-27T05:31:04;9.00;;;4.60;;
20026;SDS011;10174;42.688;23.344;2023-02-27T05:33:51;9.23;;;4.32;;
20026;SDS011;10174;42.688;23.344;2023-02-27T05:39:26;7.80;;;4.15;;
20026;SDS011;10174;42.688;23.344;2023-02-27T05:42:00;8.00;;;4.55;;
20026;SDS011;10174;42.688;23.344;2023-02-27T05:44:32;9.73;;;4.55;;
20026;SDS011;10174;42.688;23.344;2023-02-27T05:47:03;13.60;;;5.97;;
20026;SDS011;10174;42.688;23.344;2023-02-27T05:50:19;9.55;;;4.50;;
20026;SDS011;10174;42.688;23.344;2023-02-27T05:52:24;13.27;;;5.30;;
20026;SDS011;10174;42.688;23.344;2023-02-27T05:57:25;10.38;;;5.30;;
20026;SDS011;10174;42.688;23.344;2023-02-27T06:00:07;10.70;;;5.10;;
20026;SDS011;10174;42.688;23.344;2023-02-27T06:02:40;11.63;;;6.55;;
20026;SDS011;10174;42.688;23.344;2023-02-27T06:05:07;12.68;;;6.00;;
20026;SDS011;10174;42.688;23.344;2023-02-27T06:07:33;11.20;;;5.25;;
20026;SDS011;10174;42.688;23.344;2023-02-27T06:09:59;10.63;;;5.10;;
20026;SDS011;10174;42.688;23.344;2023-02-27T06:12:25;8.10;;;4.68;;
20026;SDS011;10174;42.688;23.344;2023-02-27T06:14:50;10.75;;;5.20;;
20026;SDS011;10174;42.688;23.344;2023-02-27T06:17:16;12.18;;;6.88;;
20026;SDS011;10174;42.688;23.344;2023-02-27T06:19:41;14.23;;;6.55;;
20026;SDS011;10174;42.688;23.344;2023-02-27T06:22:07;10.80;;;5.18;;
20026;SDS011;10174;42.688;23.344;2023-02-27T06:24:33;12.70;;;5.70;;
20026;SDS011;10174;42.688;23.344;2023-02-27T06:26:59;10.65;;;5.32;;
20026;SDS011;10174;42.688;23.344;2023-02-27T06:29:24;11.43;;;6.10;;
20026;SDS011;10174;42.688;23.344;2023-02-27T06:31:50;12.25;;;6.22;;
20026;SDS011;10174;42.688;23.344;2023-02-27T06:34:15;14.80;;;6.75;;
20026;SDS011;10174;42.688;23.344;2023-02-27T06:36:40;10.95;;;6.07;;
20026;SDS011;10174;42.688;23.344;2023-02-27T06:39:06;12.43;;;6.07;;
20026;SDS011;10174;42.688;23.344;2023-02-27T06:41:32;14.05;;;6.75;;
20026;SDS011;10174;42.688;23.344;2023-02-27T06:43:57;13.75;;;6.00;;
20026;SDS011;10174;42.688;23.344;2023-02-27T06:46:23;15.90;;;7.55;;
20026;SDS011;10174;42.688;23.344;2023-02-27T06:48:48;19.38;;;7.93;;
20026;SDS011;10174;42.688;23.344;2023-02-27T06:51:14;15.63;;;6.78;;
20026;SDS011;10174;42.688;23.344;2023-02-27T06:53:39;21.35;;;7.28;;
20026;SDS011;10174;42.688;23.344;2023-02-27T06:56:05;18.27;;;7.40;;
20026;SDS011;10174;42.688;23.344;2023-02-27T06:58:31;12.32;;;6.53;;
20026;SDS011;10174;42.688;23.344;2023-02-27T07:00:59;17.40;;;6.65;;
20026;SDS011;10174;42.688;23.344;2023-02-27T07:03:25;12.98;;;5.78;;
20026;SDS011;10174;42.688;23.344;2023-02-27T07:05:50;16.40;;;6.85;;
20026;SDS011;10174;42.688;23.344;2023-02-27T07:08:16;13.30;;;6.05;;
20026;SDS011;10174;42.688;23.344;2023-02-27T07:10:42;25.67;;;7.30;;
20026;SDS011;10174;42.688;23.344;2023-02-27T07:13:14;16.35;;;6.28;;
20026;SDS011;10174;42.688;23.344;2023-02-27T07:15:41;13.48;;;6.55;;
20026;SDS011;10174;42.688;23.344;2023-02-27T07:18:07;17.88;;;6.53;;
20026;SDS011;10174;42.688;23.344;2023-02-27T07:20:32;16.50;;;6.35;;
20026;SDS011;10174;42.688;23.344;2023-02-27T07:22:58;14.90;;;6.32;;
20026;SDS011;10174;42.688;23.344;2023-02-27T07:25:23;21.95;;;7.07;;
20026;SDS011;10174;42.688;23.344;2023-02-27T07:27:48;106.70;;;48.63;;
20026;SDS011;10174;42.688;23.344;2023-02-27T07:30:15;14.35;;;7.57;;
20026;SDS011;10174;42.688;23.344;2023-02-27T07:32:41;12.45;;;6.18;;
20026;SDS011;10174;42.688;23.344;2023-02-27T07:35:07;16.33;;;6.95;;
20026;SDS011;10174;42.688;23.344;2023-02-27T07:37:32;17.60;;;6.68;;
20026;SDS011;10174;42.688;23.344;2023-02-27T07:39:58;14.93;;;6.07;;
20026;SDS011;10174;42.688;23.344;2023-02-27T07:42:23;13.93;;;6.80;;
20026;SDS011;10174;42.688;23.344;2023-02-27T07:44:49;11.65;;;6.30;;
20026;SDS011;10174;42.688;23.344;2023-02-27T07:47:14;35.78;;;17.98;;
20026;SDS011;10174;42.688;23.344;2023-02-27T07:49:41;11.35;;;6.13;;
20026;SDS011;10174;42.688;23.344;2023-02-27T07:52:07;20.60;;;10.02;;
20026;SDS011;10174;42.688;23.344;2023-02-27T07:54:32;22.02;;;7.15;;
20026;SDS011;10174;42.688;23.344;2023-02-27T07:56:59;17.98;;;6.97;;
20026;SDS011;10174;42.688;23.344;2023-02-27T07:59:25;17.42;;;7.03;;
20026;SDS011;10174;42.688;23.344;2023-02-27T08:01:50;13.07;;;6.50;;
20026;SDS011;10174;42.688;23.344;2023-02-27T08:04:16;20.75;;;7.03;;
20026;SDS011;10174;42.688;23.344;2023-02-27T08:06:41;19.65;;;6.85;;
20026;SDS011;10174;42.688;23.344;2023-02-27T08:09:07;16.77;;;6.47;;
20026;SDS011;10174;42.688;23.344;2023-02-27T08:11:32;16.02;;;7.07;;
20026;SDS011;10174;42.688;23.344;2023-02-27T08:13:58;17.20;;;8.50;;
20026;SDS011;10174;42.688;23.344;2023-02-27T08:16:23;133.45;;;63.92;;
20026;SDS011;10174;42.688;23.344;2023-02-27T08:18:48;17.20;;;7.35;;
20026;SDS011;10174;42.688;23.344;2023-02-27T08:21:14;13.57;;;6.18;;
20026;SDS011;10174;42.688;23.344;2023-02-27T08:23:39;14.23;;;6.68;;
20026;SDS011;10174;42.688;23.344;2023-02-27T08:26:05;12.70;;;6.43;;
20026;SDS011;10174;42.688;23.344;2023-02-27T08:28:30;15.63;;;7.35;;
20026;SDS011;10174;42.688;23.344;2023-02-27T08:30:55;11.73;;;6.40;;
20026;SDS011;10174;42.688;23.344;2023-02-27T08:33:21;12.35;;;5.70;;
20026;SDS011;10174;42.688;23.344;2023-02-27T08:35:47;11.27;;;5.88;;
20026;SDS011;10174;42.688;23.344;2023-02-27T08:38:12;15.85;;;5.80;;
20026;SDS011;10174;42.688;23.344;2023-02-27T08:40:37;10.55;;;4.88;;
20026;SDS011;10174;42.688;23.344;2023-02-27T08:43:03;9.27;;;5.38;;
20026;SDS011;10174;42.688;23.344;2023-02-27T08:45:29;11.32;;;5.72;;
20026;SDS011;10174;42.688;23.344;2023-02-27T08:47:54;23.75;;;10.25;;
20026;SDS011;10174;42.688;23.344;2023-02-27T08:50:19;9.10;;;5.50;;
20026;SDS011;10174;42.688;23.344;2023-02-27T08:52:45;16.10;;;7.75;;
20026;SDS011;10174;42.688;23.344;2023-02-27T08:55:10;21.08;;;5.63;;
20026;SDS011;10174;42.688;23.344;2023-02-27T08:57:35;14.45;;;6.40;;
20026;SDS011;10174;42.688;23.344;2023-02-27T09:00:01;15.00;;;5.18;;
20026;SDS011;10174;42.688;23.344;2023-02-27T09:02:30;12.13;;;5.57;;
20026;SDS011;10174;42.688;23.344;2023-02-27T09:04:56;12.00;;;6.18;;
20026;SDS011;10174;42.688;23.344;2023-02-27T09:07:21;9.43;;;5.55;;
20026;SDS011;10174;42.688;23.344;2023-02-27T09:09:46;10.65;;;5.88;;
20026;SDS011;10174;42.688;23.344;2023-02-27T09:12:12;12.77;;;5.78;;
20026;SDS011;10174;42.688;23.344;2023-02-27T09:14:37;15.15;;;5.85;;
20026;SDS011;10174;42.688;23.344;2023-02-27T09:17:04;12.93;;;5.18;;
20026;SDS011;10174;42.688;23.344;2023-02-27T09:19:29;12.05;;;5.43;;
20026;SDS011;10174;42.688;23.344;2023-02-27T09:21:55;9.82;;;5.28;;
20026;SDS011;10174;42.688;23.344;2023-02-27T09:24:20;21.10;;;7.75;;
20026;SDS011;10174;42.688;23.344;2023-02-27T09:29:12;11.68;;;5.97;;
20026;SDS011;10174;42.688;23.344;2023-02-27T09:31:37;13.20;;;6.25;;
20026;SDS011;10174;42.688;23.344;2023-02-27T09:34:02;10.48;;;4.80;;
20026;SDS011;10174;42.688;23.344;2023-02-27T09:36:28;11.45;;;5.45;;
20026;SDS011;10174;42.688;23.344;2023-02-27T09:38:54;11.38;;;5.45;;
20026;SDS011;10174;42.688;23.344;2023-02-27T09:41:37;15.18;;;5.60;;
20026;SDS011;10174;42.688;23.344;2023-02-27T09:44:06;11.30;;;6.05;;
20026;SDS011;10174;42.688;23.344;2023-02-27T09:46:42;16.05;;;5.50;;
20026;SDS011;10174;42.688;23.344;2023-02-27T09:49:08;12.90;;;6.00;;
20026;SDS011;10174;42.688;23.344;2023-02-27T09:51:39;11.13;;;6.40;;
20026;SDS011;10174;42.688;23.344;2023-02-27T09:54:05;17.60;;;7.00;;
20026;SDS011;10174;42.688;23.344;2023-02-27T09:56:32;10.15;;;6.22;;
20026;SDS011;10174;42.688;23.344;2023-02-27T10:04:43;15.60;;;6.13;;
20026;SDS011;10174;42.688;23.344;2023-02-27T10:07:31;16.58;;;6.70;;
20026;SDS011;10174;42.688;23.344;2023-02-27T10:15:40;30.92;;;9.95;;
20026;SDS011;10174;42.688;23.344;2023-02-27T10:18:12;16.10;;;7.30;;
20026;SDS011;10174;42.688;23.344;2023-02-27T10:20:51;14.23;;;6.95;;
20026;SDS011;10174;42.688;23.344;2023-02-27T10:23:24;17.95;;;7.10;;
20026;SDS011;10174;42.688;23.344;2023-02-27T10:25:56;18.25;;;9.65;;
20026;SDS011;10174;42.688;23.344;2023-02-27T10:28:24;25.55;;;9.63;;
20026;SDS011;10174;42.688;23.344;2023-02-27T10:30:52;19.00;;;8.63;;
20026;SDS011;10174;42.688;23.344;2023-02-27T10:33:35;29.73;;;16.95;;
20026;SDS011;10174;42.688;23.344;2023-02-27T10:36:03;22.88;;;10.73;;
20026;SDS011;10174;42.688;23.344;2023-02-27T10:38:57;19.17;;;9.15;;
20026;SDS011;10174;42.688;23.344;2023-02-27T10:41:23;23.77;;;9.95;;
20026;SDS011;10174;42.688;23.344;2023-02-27T10:43:51;21.02;;;10.80;;
20026;SDS011;10174;42.688;23.344;2023-02-27T10:46:24;22.42;;;10.80;;
20026;SDS011;10174;42.688;23.344;2023-02-27T10:48:52;17.85;;;8.75;;
20026;SDS011;10174;42.688;23.344;2023-02-27T10:51:25;20.77;;;9.57;;
20026;SDS011;10174;42.688;23.344;2023-02-27T10:53:51;21.45;;;10.38;;
20026;SDS011;10174;42.688;23.344;2023-02-27T10:56:48;21.23;;;9.40;;
20026;SDS011;10174;42.688;23.344;2023-02-27T11:01:49;18.45;;;9.20;;
20026;SDS011;10174;42.688;23.344;2023-02-27T11:04:32;23.30;;;8.98;;
20026;SDS011;10174;42.688;23.344;2023-02-27T11:07:03;27.88;;;9.82;;
20026;SDS011;10174;42.688;23.344;2023-02-27T11:09:34;19.02;;;9.50;;
20026;SDS011;10174;42.688;23.344;2023-02-27T11:12:21;30.48;;;11.60;;
20026;SDS011;10174;42.688;23.344;2023-02-27T11:14:51;17.52;;;9.15;;
20026;SDS011;10174;42.688;23.344;2023-02-27T11:17:20;15.82;;;8.63;;
20026;SDS011;10174;42.688;23.344;2023-02-27T11:20:52;17.90;;;8.02;;
20026;SDS011;10174;42.688;23.344;2023-02-27T11:23:02;15.45;;;8.30;;
20026;SDS011;10174;42.688;23.344;2023-02-27T11:25:31;17.60;;;9.20;;
20026;SDS011;10174;42.688;23.344;2023-02-27T11:30:41;18.17;;;7.78;;
20026;SDS011;10174;42.688;23.344;2023-02-27T11:33:17;15.48;;;7.63;;
20026;SDS011;10174;42.688;23.344;2023-02-27T11:35:49;17.08;;;7.65;;
20026;SDS011;10174;42.688;23.344;2023-02-27T11:38:16;20.50;;;7.90;;
20026;SDS011;10174;42.688;23.344;2023-02-27T11:41:07;26.77;;;11.93;;
20026;SDS011;10174;42.688;23.344;2023-02-27T11:43:37;21.20;;;10.32;;
20026;SDS011;10174;42.688;23.344;2023-02-27T11:46:11;23.05;;;9.32;;
20026;SDS011;10174;42.688;23.344;2023-02-27T11:48:46;22.13;;;9.85;;
20026;SDS011;10174;42.688;23.344;2023-02-27T11:54:46;17.75;;;8.88;;
20026;SDS011;10174;42.688;23.344;2023-02-27T11:57:24;19.60;;;8.80;;
20026;SDS011;10174;42.688;23.344;2023-02-27T12:00:01;22.42;;;10.85;;
20026;SDS011;10174;42.688;23.344;2023-02-27T12:03:02;21.92;;;10.65;;
20026;SDS011;10174;42.688;23.344;2023-02-27T12:05:55;18.98;;;8.93;;
20026;SDS011;10174;42.688;23.344;2023-02-27T12:08:29;16.67;;;9.02;;
20026;SDS011;10174;42.688;23.344;2023-02-27T12:10:57;24.33;;;9.60;;
20026;SDS011;10174;42.688;23.344;2023-02-27T12:13:27;26.60;;;10.20;;
20026;SDS011;10174;42.688;23.344;2023-02-27T12:18:56;23.80;;;9.30;;
20026;SDS011;10174;42.688;23.344;2023-02-27T12:21:30;23.08;;;9.23;;
20026;SDS011;10174;42.688;23.344;2023-02-27T12:26:45;25.80;;;8.90;;
20026;SDS011;10174;42.688;23.344;2023-02-27T12:29:21;19.83;;;8.25;;
20026;SDS011;10174;42.688;23.344;2023-02-27T12:31:59;27.15;;;9.25;;
20026;SDS011;10174;42.688;23.344;2023-02-27T12:34:35;18.65;;;8.43;;
20026;SDS011;10174;42.688;23.344;2023-02-27T12:37:03;24.98;;;10.15;;
20026;SDS011;10174;42.688;23.344;2023-02-27T12:39:34;15.18;;;7.93;;
20026;SDS011;10174;42.688;23.344;2023-02-27T12:42:09;22.83;;;8.77;;
20026;SDS011;10174;42.688;23.344;2023-02-27T12:47:36;32.17;;;9.40;;
20026;SDS011;10174;42.688;23.344;2023-02-27T12:50:18;27.05;;;10.02;;
20026;SDS011;10174;42.688;23.344;2023-02-27T12:53:04;29.83;;;11.23;;
20026;SDS011;10174;42.688;23.344;2023-02-27T12:55:43;20.95;;;9.95;;
20026;SDS011;10174;42.688;23.344;2023-02-27T12:58:15;21.30;;;10.20;;
20026;SDS011;10174;42.688;23.344;2023-02-27T13:11:19;28.63;;;10.43;;
20026;SDS011;10174;42.688;23.344;2023-02-27T13:13:47;22.20;;;10.73;;
20026;SDS011;10174;42.688;23.344;2023-02-27T13:16:16;23.98;;;12.10;;
20026;SDS011;10174;42.688;23.344;2023-02-27T13:18:47;27.48;;;10.75;;
20026;SDS011;10174;42.688;23.344;2023-02-27T13:21:30;24.33;;;10.77;;
20026;SDS011;10174;42.688;23.344;2023-02-27T13:24:01;16.63;;;8.02;;
20026;SDS011;10174;42.688;23.344;2023-02-27T13:26:38;17.10;;;8.75;;
20026;SDS011;10174;42.688;23.344;2023-02-27T13:29:15;19.42;;;8.63;;
20026;SDS011;10174;42.688;23.344;2023-02-27T13:36:54;23.48;;;10.65;;
20026;SDS011;10174;42.688;23.344;2023-02-27T13:44:50;17.42;;;8.75;;
20026;SDS011;10174;42.688;23.344;2023-02-27T13:47:40;19.38;;;9.13;;
20026;SDS011;10174;42.688;23.344;2023-02-27T13:52:47;23.35;;;10.32;;
20026;SDS011;10174;42.688;23.344;2023-02-27T13:55:29;24.70;;;9.95;;
20026;SDS011;10174;42.688;23.344;2023-02-27T13:57:59;24.88;;;10.77;;
20026;SDS011;10174;42.688;23.344;2023-02-27T14:00:33;22.77;;;10.38;;
20026;SDS011;10174;42.688;23.344;2023-02-27T14:03:05;25.52;;;10.75;;
20026;SDS011;10174;42.688;23.344;2023-02-27T14:05:42;27.70;;;11.40;;
20026;SDS011;10174;42.688;23.344;2023-02-27T14:24:15;23.52;;;11.75;;
20026;SDS011;10174;42.688;23.344;2023-02-27T14:26:41;27.67;;;12.00;;
20026;SDS011;10174;42.688;23.344;2023-02-27T14:29:17;29.98;;;12.00;;
20026;SDS011;10174;42.688;23.344;2023-02-27T14:31:45;30.63;;;12.05;;
20026;SDS011;10174;42.688;23.344;2023-02-27T14:34:15;24.50;;;11.25;;
20026;SDS011;10174;42.688;23.344;2023-02-27T14:39:25;30.63;;;12.45;;
20026;SDS011;10174;42.688;23.344;2023-02-27T14:44:36;30.15;;;11.52;;
20026;SDS011;10174;42.688;23.344;2023-02-27T14:47:05;24.83;;;11.93;;
20026;SDS011;10174;42.688;23.344;2023-02-27T14:49:48;22.35;;;10.55;;
20026;SDS011;10174;42.688;23.344;2023-02-27T14:52:19;23.10;;;10.75;;
20026;SDS011;10174;42.688;23.344;2023-02-27T14:54:46;29.08;;;11.60;;
20026;SDS011;10174;42.688;23.344;2023-02-27T14:57:14;26.08;;;11.05;;
20026;SDS011;10174;42.688;23.344;2023-02-27T14:59:53;26.23;;;12.25;;
20026;SDS011;10174;42.688;23.344;2023-02-27T15:04:44;24.67;;;11.18;;
20026;SDS011;10174;42.688;23.344;2023-02-27T15:07:15;28.27;;;12.30;;
20026;SDS011;10174;42.688;23.344;2023-02-27T15:09:48;29.15;;;12.55;;
20026;SDS011;10174;42.688;23.344;2023-02-27T15:12:16;31.20;;;12.95;;
20026;SDS011;10174;42.688;23.344;2023-02-27T15:14:48;30.58;;;12.93;;
20026;SDS011;10174;42.688;23.344;2023-02-27T15:17:16;29.17;;;14.15;;
20026;SDS011;10174;42.688;23.344;2023-02-27T15:19:46;31.73;;;13.18;;
20026;SDS011;10174;42.688;23.344;2023-02-27T15:22:21;34.40;;;15.18;;
20026;SDS011;10174;42.688;23.344;2023-02-27T15:24:52;35.00;;;14.45;;
20026;SDS011;10174;42.688;23.344;2023-02-27T15:27:19;31.70;;;13.98;;
20026;SDS011;10174;42.688;23.344;2023-02-27T15:29:51;28.60;;;13.90;;
20026;SDS011;10174;42.688;23.344;2023-02-27T15:32:39;35.75;;;15.63;;
20026;SDS011;10174;42.688;23.344;2023-02-27T15:35:28;33.53;;;14.40;;
20026;SDS011;10174;42.688;23.344;2023-02-27T15:38:20;29.00;;;13.55;;
20026;SDS011;10174;42.688;23.344;2023-02-27T15:40:49;40.67;;;15.88;;
20026;SDS011;10174;42.688;23.344;2023-02-27T15:43:15;32.13;;;14.55;;
20026;SDS011;10174;42.688;23.344;2023-02-27T15:45:41;35.08;;;15.43;;
20026;SDS011;10174;42.688;23.344;2023-02-27T15:48:08;40.25;;;16.30;;
20026;SDS011;10174;42.688;23.344;2023-02-27T15:50:40;43.15;;;19.63;;
20026;SDS011;10174;42.688;23.344;2023-02-27T15:55:33;37.33;;;18.70;;
20026;SDS011;10174;42.688;23.344;2023-02-27T15:58:01;41.03;;;19.52;;
20026;SDS011;10174;42.688;23.344;2023-02-27T16:00:27;45.58;;;19.17;;
20026;SDS011;10174;42.688;23.344;2023-02-27T16:02:55;44.20;;;19.73;;
20026;SDS011;10174;42.688;23.344;2023-02-27T16:08:02;43.55;;;19.98;;
20026;SDS011;10174;42.688;23.344;2023-02-27T16:10:33;44.53;;;20.48;;
20026;SDS011;10174;42.688;23.344;2023-02-27T16:21:14;41.67;;;19.25;;
20026;SDS011;10174;42.688;23.344;2023-02-27T16:23:42;43.22;;;20.42;;
20026;SDS011;10174;42.688;23.344;2023-02-27T16:29:12;47.17;;;20.15;;
20026;SDS011;10174;42.688;23.344;2023-02-27T16:31:47;46.58;;;21.15;;
20026;SDS011;10174;42.688;23.344;2023-02-27T16:34:21;47.17;;;21.25;;
20026;SDS011;10174;42.688;23.344;2023-02-27T16:36:54;42.08;;;19.65;;
20026;SDS011;10174;42.688;23.344;2023-02-27T16:39:22;44.42;;;21.08;;
20026;SDS011;10174;42.688;23.344;2023-02-27T16:41:48;41.13;;;20.40;;
20026;SDS011;10174;42.688;23.344;2023-02-27T16:44:13;47.53;;;20.75;;
20026;SDS011;10174;42.688;23.344;2023-02-27T16:46:39;50.72;;;20.05;;
20026;SDS011;10174;42.688;23.344;2023-02-27T16:49:04;49.38;;;19.90;;
20026;SDS011;10174;42.688;23.344;2023-02-27T16:51:30;44.70;;;19.38;;
20026;SDS011;10174;42.688;23.344;2023-02-27T16:53:57;43.13;;;19.63;;
20026;SDS011;10174;42.688;23.344;2023-02-27T16:56:24;46.17;;;19.92;;
20026;SDS011;10174;42.688;23.344;2023-02-27T16:58:51;41.08;;;19.25;;
20026;SDS011;10174;42.688;23.344;2023-02-27T17:01:16;44.30;;;19.67;;
20026;SDS011;10174;42.688;23.344;2023-02-27T17:03:43;46.35;;;20.25;;
20026;SDS011;10174;42.688;23.344;2023-02-27T17:06:10;50.92;;;19.15;;
20026;SDS011;10174;42.688;23.344;2023-02-27T17:08:37;45.15;;;19.83;;
20026;SDS011;10174;42.688;23.344;2023-02-27T17:11:04;48.63;;;21.33;;
20026;SDS011;10174;42.688;23.344;2023-02-27T17:13:30;43.63;;;19.80;;
20026;SDS011;10174;42.688;23.344;2023-02-27T17:15:56;49.95;;;22.13;;
20026;SDS011;10174;42.688;23.344;2023-02-27T17:18:23;45.70;;;22.67;;
20026;SDS011;10174;42.688;23.344;2023-02-27T17:20:50;57.47;;;23.48;;